East Brunswick, NJ - U.S.A.

40° 26' 15"N, 74° 23' 24"W, Elevation 138 ft.

Friday, April 25, 2014
3:58:00 AM (Eastern)

115th day of the year

Updated and refreshed every 2 minutes. Weather computer in use: Davis Vantage PRO2 Plus


Yesterday's Weather Here

Current Weather

Current Today's Highs and Lows
Temperature 42.0°F (5.6°C) ↓ 49.3° 12:00 AM
42.0° 3:52 AM
Dew Point 20.7°F (-6.3°C) ↑ 21.3° 3:02 AM
17.4° 12:01 AM
Humidity 42% ↑ 42% 3:53 AM
28% 12:00 AM
Wind Gust NNE 6 mph NNW 11 12:04 AM
NW 0 12:00 AM
Wind Speed NNE 1 mph ↓
Light air (1)
NW 7 12:00 AM
N 0 12:22 AM
Precipitation 0.00" (0.00 mm) 1
Last 24 hours 0.00"
Instantaneous rate 0.00"/hr
Storm total 0.00"
0.00"2 12:00 AM
0.00"2 12:00 AM
Barometer 29.999" (1015.9 mb)
Falling
30.031" 12:59 AM
29.998" 3:29 AM
Wind Chill Gust 42°F (6°C) 49° 12:00 AM
38° 3:52 AM
Wind Chill Avg 42°F (6°C) 49° 12:01 AM
40° 3:53 AM
Heat Index 42°F (5.6°C) 49° 12:00 AM
42° 3:08 AM
Sunshine 0 W/m2
Sunshine minutes 0
0 12:00 AM
0 12:00 AM
UV Index  0.0 0.0 12:00 AM
0.0 12:00 AM
1. Daily total rainfall.
2. Maximum and minimum rainfall are the instantaneous rainfall rates.

'KEBR' METAR REPORT:

METAR KEBR 250758Z AUTO 03001KT 06/M06 A3000 RMK AO1 SLP159 T00561063 

Webcam

EBWeather.com Video ArchiveWeather Underground Webcams



Regional Satellite/Weather

Satellite/Radar 

Data generated by WxSolution Version 1.8.7, Build 2013.11.03.